createdAt,value
2022-10-18T00:06:13.749Z,89.93
2022-10-18T00:16:19.227Z,90.40
2022-10-18T00:26:26.117Z,89.65
2022-10-18T00:36:31.146Z,89.44
2022-10-18T00:46:37.673Z,90.53
2022-10-18T00:56:40.924Z,90.35
2022-10-18T01:06:53.130Z,90.89
2022-10-18T01:17:03.211Z,91.68
2022-10-18T01:27:34.186Z,91.98
2022-10-18T01:37:39.710Z,92.06
2022-10-18T01:47:45.602Z,91.86
2022-10-18T01:58:01.635Z,91.71
2022-10-18T02:08:22.118Z,92.12
2022-10-18T02:18:32.794Z,93.10
2022-10-18T02:28:36.069Z,93.48
2022-10-18T02:38:42.596Z,93.40
2022-10-18T02:48:47.142Z,93.42
2022-10-18T02:58:51.759Z,94.44
2022-10-18T03:08:55.306Z,95.37
2022-10-18T03:19:09.331Z,94.61
2022-10-18T03:29:19.174Z,94.98
2022-10-18T03:39:29.972Z,94.89
2022-10-18T03:49:38.547Z,95.03
2022-10-18T03:59:57.976Z,94.84
2022-10-18T04:10:03.805Z,95.62
2022-10-18T04:20:12.740Z,95.27
2022-10-18T04:30:17.540Z,94.61
2022-10-18T04:40:27.774Z,94.72
2022-10-18T04:50:36.927Z,95.20
2022-10-18T05:00:52.049Z,95.39
2022-10-18T05:11:01.620Z,94.53
2022-10-18T05:21:17.232Z,93.92
2022-10-18T05:31:20.424Z,94.29
2022-10-18T05:41:36.246Z,93.75
2022-10-18T05:51:42.156Z,95.13
2022-10-18T06:01:47.546Z,94.94
2022-10-18T06:11:57.653Z,94.61
2022-10-18T06:22:05.188Z,94.07
2022-10-18T06:32:08.936Z,93.67
2022-10-18T06:42:13.525Z,94.06
2022-10-18T07:02:51.918Z,94.54
2022-10-18T07:13:13.598Z,94.92
2022-10-18T07:23:26.576Z,95.11
2022-10-18T07:33:30.677Z,96.58
2022-10-18T07:44:14.440Z,97.00
2022-10-18T07:54:20.134Z,98.08
2022-10-18T08:04:23.595Z,98.52
2022-10-18T08:14:29.818Z,99.01
2022-10-18T08:24:32.751Z,98.49
2022-10-18T08:44:50.032Z,98.77
2022-10-18T08:55:08.728Z,98.58
2022-10-18T09:05:27.913Z,99.02
2022-10-18T09:15:49.808Z,98.71
2022-10-18T09:26:04.762Z,99.52
2022-10-18T09:36:15.979Z,99.03
2022-10-18T09:46:22.945Z,99.30
2022-10-18T09:56:31.205Z,99.49
2022-10-18T10:06:36.137Z,99.77
2022-10-18T10:16:52.854Z,99.94
2022-10-18T10:27:05.038Z,100.00
2022-10-18T10:37:25.149Z,100.00
2022-10-18T10:47:32.127Z,100.00
2022-10-18T10:57:36.965Z,100.00
2022-10-18T11:07:42.717Z,100.00
2022-10-18T11:17:56.028Z,100.00
2022-10-18T11:28:09.600Z,100.00
2022-10-18T11:38:32.349Z,100.00
2022-10-18T11:48:51.086Z,100.00
2022-10-18T11:59:13.330Z,100.00
2022-10-18T12:09:24.176Z,100.00
2022-10-18T12:19:31.372Z,100.00
2022-10-18T12:29:45.439Z,100.00
2022-10-18T12:40:10.217Z,100.00
2022-10-18T12:50:31.709Z,100.00
2022-10-18T13:00:57.844Z,99.09
2022-10-18T13:11:28.541Z,97.95
2022-10-18T13:21:44.865Z,98.52
2022-10-18T13:31:50.782Z,96.25
2022-10-18T13:42:21.099Z,91.62
2022-10-18T13:52:34.414Z,91.30
2022-10-18T14:03:09.123Z,91.19
2022-10-18T14:13:21.420Z,91.45
2022-10-18T14:23:30.178Z,92.40
2022-10-18T14:33:36.365Z,90.92
2022-10-18T14:43:40.668Z,90.32
2022-10-18T14:53:43.791Z,91.97
2022-10-18T15:03:49.123Z,92.06
2022-10-18T15:13:55.619Z,92.80
2022-10-18T15:24:21.419Z,91.01
2022-10-18T15:34:26.985Z,90.67
2022-10-18T15:44:34.915Z,91.21
2022-10-18T15:54:38.076Z,91.03
2022-10-18T16:04:42.563Z,90.62
2022-10-18T16:14:45.479Z,90.63
2022-10-18T16:24:49.712Z,90.10
2022-10-18T16:34:56.192Z,89.64
2022-10-18T16:45:06.717Z,89.20
2022-10-18T16:55:21.189Z,88.73
2022-10-18T17:05:25.852Z,88.16
2022-10-18T17:15:32.810Z,88.04
2022-10-18T17:25:51.524Z,86.87
2022-10-18T17:36:05.228Z,85.79
2022-10-18T17:46:11.580Z,86.68
2022-10-18T17:56:15.542Z,85.21
2022-10-18T18:06:22.167Z,84.98
2022-10-18T18:16:26.909Z,84.56
2022-10-18T18:26:34.462Z,83.05
2022-10-18T18:36:37.362Z,83.58
2022-10-18T18:46:42.147Z,82.83
2022-10-18T18:56:45.312Z,81.43
2022-10-18T19:06:50.051Z,80.48
2022-10-18T19:16:54.383Z,80.87
2022-10-18T19:27:01.322Z,80.78
2022-10-18T19:37:05.585Z,80.65
2022-10-18T19:47:12.723Z,79.84
2022-10-18T19:57:15.899Z,79.29
2022-10-18T20:07:20.470Z,78.70
2022-10-18T20:17:23.482Z,78.06
2022-10-18T20:27:27.890Z,78.52
2022-10-18T20:37:30.861Z,78.75
2022-10-18T20:47:35.675Z,77.76
2022-10-18T20:57:39.284Z,76.84
2022-10-18T21:07:43.687Z,78.23
2022-10-18T21:17:51.236Z,78.33
2022-10-18T21:27:55.833Z,77.84
2022-10-18T21:37:58.925Z,77.45
2022-10-18T21:48:03.807Z,77.25
2022-10-18T21:58:06.744Z,76.92
2022-10-18T22:08:10.933Z,77.82
2022-10-18T22:18:13.856Z,77.60
2022-10-18T22:28:18.474Z,77.71
2022-10-18T22:38:21.350Z,76.94
2022-10-18T22:48:25.464Z,76.62
2022-10-18T22:58:28.887Z,77.09
2022-10-18T23:08:34.263Z,77.87
2022-10-18T23:18:37.369Z,77.72
2022-10-18T23:28:43.661Z,76.04
2022-10-18T23:38:46.602Z,77.54
2022-10-18T23:48:50.991Z,78.15
2022-10-18T23:58:53.958Z,77.93
